createdAt,value
2023-01-08T00:00:10.822Z,100545.84
2023-01-08T00:02:40.543Z,100534.22
2023-01-08T00:05:08.332Z,100534.06
2023-01-08T00:07:35.576Z,100531.47
2023-01-08T00:10:02.858Z,100532.41
2023-01-08T00:12:30.148Z,100530.88
2023-01-08T00:14:57.390Z,100535.09
2023-01-08T00:17:24.612Z,100532.91
2023-01-08T00:19:51.823Z,100535.06
2023-01-08T00:22:19.166Z,100535.25
2023-01-08T00:24:46.461Z,100530.47
2023-01-08T00:27:13.821Z,100531.91
2023-01-08T00:29:41.041Z,100540.00
2023-01-08T00:32:08.273Z,100533.53
2023-01-08T00:34:35.487Z,100533.84
2023-01-08T00:37:02.740Z,100530.38
2023-01-08T00:39:30.200Z,100533.41
2023-01-08T00:41:57.362Z,100534.75
2023-01-08T00:44:24.591Z,100533.97
2023-01-08T00:46:52.123Z,100532.53
2023-01-08T00:49:19.333Z,100534.88
2023-01-08T00:51:46.567Z,100536.94
2023-01-08T00:54:13.784Z,100532.31
2023-01-08T00:56:41.203Z,100544.00
2023-01-08T00:59:08.459Z,100530.56
2023-01-08T01:01:36.478Z,100536.78
2023-01-08T01:04:04.118Z,100536.72
2023-01-08T01:06:31.384Z,100545.78
2023-01-08T01:08:58.750Z,100538.03
2023-01-08T01:11:27.889Z,100533.06
2023-01-08T01:13:56.548Z,100540.66
2023-01-08T01:16:24.845Z,100534.56
2023-01-08T01:18:52.538Z,100539.91
2023-01-08T01:21:26.813Z,100538.28
2023-01-08T01:23:59.126Z,100536.56
2023-01-08T01:26:27.221Z,100537.50
2023-01-08T01:28:56.532Z,100534.97
2023-01-08T01:31:25.533Z,100539.63
2023-01-08T01:33:53.255Z,100534.69
2023-01-08T01:36:23.637Z,100534.09
2023-01-08T01:38:53.000Z,100532.47
2023-01-08T01:41:28.567Z,100528.81
2023-01-08T01:44:33.681Z,100517.56
2023-01-08T01:47:03.697Z,100529.19
2023-01-08T01:49:30.932Z,100525.56
2023-01-08T01:52:02.423Z,100516.72
2023-01-08T01:54:31.532Z,100519.56
2023-01-08T01:57:00.206Z,100511.16
2023-01-08T01:59:27.724Z,100524.78
2023-01-08T02:01:56.783Z,100507.84
2023-01-08T02:04:24.130Z,100513.16
2023-01-08T02:07:06.130Z,100507.06
2023-01-08T02:09:43.159Z,100511.38
2023-01-08T02:12:24.559Z,100506.94
2023-01-08T02:15:08.991Z,100508.16
2023-01-08T02:17:39.830Z,100506.56
2023-01-08T02:20:14.951Z,100505.66
2023-01-08T02:23:04.115Z,100508.94
2023-01-08T02:26:07.697Z,100504.59
2023-01-08T02:28:41.586Z,100500.09
2023-01-08T02:31:09.599Z,100509.78
2023-01-08T02:33:36.862Z,100507.03
2023-01-08T02:36:22.016Z,100496.22
2023-01-08T02:39:17.753Z,100497.66
2023-01-08T02:41:57.044Z,100497.06
2023-01-08T02:44:50.222Z,100495.88
2023-01-08T02:47:37.667Z,100488.97
2023-01-08T02:50:13.641Z,100492.84
2023-01-08T02:52:53.529Z,100499.00
2023-01-08T02:55:23.636Z,100491.81
2023-01-08T02:57:51.503Z,100486.56
2023-01-08T03:00:20.050Z,100483.81
2023-01-08T03:02:51.317Z,100479.44
2023-01-08T03:05:26.529Z,100476.69
2023-01-08T03:07:55.607Z,100467.69
2023-01-08T03:10:26.405Z,100473.72
2023-01-08T03:13:02.396Z,100472.81
2023-01-08T03:15:41.681Z,100464.91
2023-01-08T03:18:15.851Z,100463.44
2023-01-08T03:20:45.704Z,100467.94
2023-01-08T03:23:14.788Z,100470.53
2023-01-08T03:25:46.095Z,100474.28
2023-01-08T03:28:30.716Z,100471.81
2023-01-08T03:30:59.369Z,100476.28
2023-01-08T03:33:29.584Z,100479.00
2023-01-08T03:35:59.770Z,100476.38
2023-01-08T03:38:36.768Z,100477.28
2023-01-08T03:41:12.094Z,100457.69
2023-01-08T03:43:39.564Z,100474.41
2023-01-08T03:46:13.878Z,100470.84
2023-01-08T03:48:41.315Z,100467.25
2023-01-08T03:51:10.346Z,100466.28
2023-01-08T03:53:37.753Z,100465.34
2023-01-08T03:56:05.936Z,100460.84
2023-01-08T03:58:33.199Z,100461.69
2023-01-08T04:01:01.207Z,100465.28
2023-01-08T04:03:28.482Z,100468.84
2023-01-08T04:05:55.728Z,100467.03
2023-01-08T04:08:23.117Z,100458.28
2023-01-08T04:10:50.324Z,100460.03
2023-01-08T04:13:17.639Z,100459.13
2023-01-08T04:15:49.733Z,100460.94
2023-01-08T04:18:18.379Z,100454.78
2023-01-08T04:20:47.180Z,100459.13
2023-01-08T04:23:14.634Z,100470.53
2023-01-08T04:25:42.070Z,100470.47
2023-01-08T04:28:09.384Z,100465.13
2023-01-08T04:30:37.249Z,100454.47
2023-01-08T04:33:04.574Z,100459.81
2023-01-08T04:35:31.851Z,100458.88
2023-01-08T04:37:59.107Z,100462.34
2023-01-08T04:40:26.441Z,100463.28
2023-01-08T04:42:54.109Z,100467.63
2023-01-08T04:45:21.363Z,100462.38
2023-01-08T04:47:48.622Z,100466.09
2023-01-08T04:50:15.931Z,100462.53
2023-01-08T04:52:43.244Z,100469.78
2023-01-08T04:55:10.475Z,100458.38
2023-01-08T04:57:37.689Z,100460.25
2023-01-08T05:00:05.866Z,100468.25
2023-01-08T05:02:33.269Z,100470.03
2023-01-08T05:05:00.722Z,100459.44
2023-01-08T05:07:28.003Z,100461.25
2023-01-08T05:09:55.228Z,100458.66
2023-01-08T05:12:22.501Z,100458.72
2023-01-08T05:14:49.778Z,100464.97
2023-01-08T05:17:17.110Z,100458.81
2023-01-08T05:19:44.367Z,100462.44
2023-01-08T05:22:11.649Z,100470.47
2023-01-08T05:24:39.006Z,100471.44
2023-01-08T05:27:06.306Z,100462.59
2023-01-08T05:29:33.623Z,100465.31
2023-01-08T05:32:00.815Z,100465.34
2023-01-08T05:34:28.136Z,100473.38
2023-01-08T05:36:55.406Z,100470.53
2023-01-08T05:39:22.655Z,100471.28
2023-01-08T05:41:49.919Z,100469.72
2023-01-08T05:44:17.181Z,100470.66
2023-01-08T05:46:44.485Z,100468.00
2023-01-08T05:49:11.857Z,100473.38
2023-01-08T05:51:39.105Z,100477.91
2023-01-08T05:54:06.341Z,100469.94
2023-01-08T05:56:33.613Z,100468.97
2023-01-08T05:59:00.865Z,100465.44
2023-01-08T06:01:28.196Z,100469.81
2023-01-08T06:03:56.631Z,100468.81
2023-01-08T06:06:24.004Z,100459.06
2023-01-08T06:08:51.290Z,100452.63
2023-01-08T06:11:18.590Z,100460.09
2023-01-08T06:13:45.832Z,100465.34
2023-01-08T06:16:13.754Z,100463.47
2023-01-08T06:18:41.074Z,100467.00
2023-01-08T06:21:08.419Z,100474.06
2023-01-08T06:23:35.738Z,100466.94
2023-01-08T06:26:06.367Z,100465.03
2023-01-08T06:28:33.852Z,100452.47
2023-01-08T06:31:02.186Z,100458.63
2023-01-08T06:33:30.621Z,100463.06
2023-01-08T06:36:05.006Z,100468.28
2023-01-08T06:38:36.910Z,100461.84
2023-01-08T06:41:05.945Z,100457.31
2023-01-08T06:43:36.362Z,100467.84
2023-01-08T06:46:05.518Z,100468.56
2023-01-08T06:48:32.841Z,100462.16
2023-01-08T06:51:01.292Z,100462.88
2023-01-08T06:53:28.981Z,100466.09
2023-01-08T06:55:58.611Z,100469.47
2023-01-08T06:58:27.259Z,100468.47
2023-01-08T07:00:54.744Z,100469.28
2023-01-08T07:03:22.040Z,100478.13
2023-01-08T07:05:50.840Z,100470.09
2023-01-08T07:08:18.502Z,100463.75
2023-01-08T07:10:46.102Z,100471.69
2023-01-08T07:13:13.544Z,100467.97
2023-01-08T07:15:41.974Z,100467.03
2023-01-08T07:18:11.496Z,100470.34
2023-01-08T07:20:39.319Z,100476.47
2023-01-08T07:23:09.614Z,100469.97
2023-01-08T07:25:36.926Z,100476.97
2023-01-08T07:28:04.324Z,100470.69
2023-01-08T07:30:31.651Z,100465.09
2023-01-08T07:33:00.485Z,100472.19
2023-01-08T07:35:28.318Z,100472.34
2023-01-08T07:37:56.115Z,100463.41
2023-01-08T07:40:23.920Z,100465.22
2023-01-08T07:43:01.657Z,100467.69
2023-01-08T07:45:29.995Z,100469.59
2023-01-08T07:47:58.534Z,100460.59
2023-01-08T07:50:26.999Z,100467.56
2023-01-08T07:52:58.056Z,100463.84
2023-01-08T07:55:25.930Z,100464.72
2023-01-08T07:57:53.194Z,100461.94
2023-01-08T08:00:20.539Z,100457.44
2023-01-08T08:02:48.037Z,100454.63
2023-01-08T08:05:15.471Z,100447.31
2023-01-08T08:07:42.707Z,100448.19
2023-01-08T08:10:12.084Z,100446.25
2023-01-08T08:12:39.468Z,100454.16
2023-01-08T08:15:08.437Z,100454.13
2023-01-08T08:17:35.689Z,100450.31
2023-01-08T08:20:03.119Z,100452.00
2023-01-08T08:22:30.581Z,100450.06
2023-01-08T08:24:57.896Z,100445.31
2023-01-08T08:27:25.210Z,100442.41
2023-01-08T08:29:52.419Z,100450.22
2023-01-08T08:32:19.718Z,100452.69
2023-01-08T08:34:46.971Z,100439.75
2023-01-08T08:37:14.325Z,100443.75
2023-01-08T08:39:41.646Z,100433.53
2023-01-08T08:42:08.805Z,100438.59
2023-01-08T08:44:36.125Z,100438.59
2023-01-08T08:47:08.493Z,100432.63
2023-01-08T08:49:36.509Z,100435.63
2023-01-08T08:52:04.673Z,100435.19
2023-01-08T08:54:32.169Z,100429.41
2023-01-08T08:56:59.436Z,100427.34
2023-01-08T08:59:26.673Z,100420.19
2023-01-08T09:01:54.122Z,100422.47
2023-01-08T09:04:21.482Z,100413.28
2023-01-08T09:06:48.696Z,100404.66
2023-01-08T09:09:16.104Z,100409.31
2023-01-08T09:11:43.371Z,100403.72
2023-01-08T09:14:10.606Z,100401.06
2023-01-08T09:16:37.906Z,100400.28
2023-01-08T09:19:06.685Z,100409.22
2023-01-08T09:21:34.091Z,100403.97
2023-01-08T09:24:01.311Z,100407.03
2023-01-08T09:26:30.251Z,100394.25
2023-01-08T09:28:58.922Z,100396.28
2023-01-08T09:31:26.894Z,100392.16
2023-01-08T09:33:54.278Z,100389.28
2023-01-08T09:36:21.515Z,100390.59
2023-01-08T09:38:48.871Z,100388.63
2023-01-08T09:41:30.402Z,100380.00
2023-01-08T09:43:59.601Z,100371.41
2023-01-08T09:46:28.660Z,100380.41
2023-01-08T09:49:05.028Z,100368.53
2023-01-08T09:51:35.642Z,100362.91
2023-01-08T09:54:04.447Z,100357.63
2023-01-08T09:56:34.913Z,100359.78
2023-01-08T09:59:04.436Z,100359.91
2023-01-08T10:01:37.879Z,100356.44
2023-01-08T10:04:21.749Z,100352.94
2023-01-08T10:07:05.825Z,100340.94
2023-01-08T10:09:33.974Z,100347.56
2023-01-08T10:12:03.601Z,100342.03
2023-01-08T10:14:39.864Z,100329.56
2023-01-08T10:17:19.267Z,100339.06
2023-01-08T10:19:46.695Z,100339.38
2023-01-08T10:22:17.809Z,100324.38
2023-01-08T10:24:45.450Z,100322.41
2023-01-08T10:27:15.060Z,100324.25
2023-01-08T10:29:42.634Z,100316.81
2023-01-08T10:32:34.360Z,100313.91
2023-01-08T10:35:06.905Z,100309.47
2023-01-08T10:37:43.056Z,100314.19
2023-01-08T10:40:24.985Z,100310.28
2023-01-08T10:42:53.200Z,100316.13
2023-01-08T10:45:23.367Z,100309.50
2023-01-08T10:47:55.948Z,100312.91
2023-01-08T10:50:27.206Z,100298.44
2023-01-08T10:52:57.993Z,100297.47
2023-01-08T10:55:25.360Z,100295.09
2023-01-08T10:58:00.921Z,100298.44
2023-01-08T11:00:37.769Z,100293.03
2023-01-08T11:03:21.044Z,100279.34
2023-01-08T11:05:50.146Z,100278.78
2023-01-08T11:08:22.784Z,100277.63
2023-01-08T11:11:01.438Z,100273.53
2023-01-08T11:13:29.926Z,100276.41
2023-01-08T11:16:07.198Z,100268.50
2023-01-08T11:18:45.761Z,100261.53
2023-01-08T11:21:22.629Z,100249.00
2023-01-08T11:24:12.751Z,100255.59
2023-01-08T11:26:43.556Z,100254.47
2023-01-08T11:29:16.860Z,100244.69
2023-01-08T11:32:04.306Z,100242.59
2023-01-08T11:34:59.307Z,100237.16
2023-01-08T11:37:29.359Z,100231.63
2023-01-08T11:39:57.364Z,100236.16
2023-01-08T11:42:30.539Z,100231.31
2023-01-08T11:45:11.845Z,100226.88
2023-01-08T11:47:44.933Z,100224.59
2023-01-08T11:50:22.328Z,100221.16
2023-01-08T11:53:05.840Z,100212.94
2023-01-08T11:55:47.902Z,100211.00
2023-01-08T11:58:33.184Z,100213.03
2023-01-08T12:01:22.359Z,100209.44
2023-01-08T12:04:15.730Z,100196.88
2023-01-08T12:06:59.228Z,100201.75
2023-01-08T12:09:26.443Z,100198.38
2023-01-08T12:12:03.897Z,100200.78
2023-01-08T12:14:52.228Z,100191.44
2023-01-08T12:17:40.180Z,100193.75
2023-01-08T12:20:15.908Z,100193.53
2023-01-08T12:23:20.798Z,100181.84
2023-01-08T12:26:00.113Z,100187.56
2023-01-08T12:28:48.670Z,100183.97
2023-01-08T12:31:46.369Z,100183.19
2023-01-08T12:34:22.006Z,100179.16
2023-01-08T12:36:54.297Z,100172.50
2023-01-08T12:39:29.111Z,100175.00
2023-01-08T12:42:13.640Z,100161.63
2023-01-08T12:44:41.116Z,100164.34
2023-01-08T12:47:16.725Z,100162.91
2023-01-08T12:50:11.048Z,100162.50
2023-01-08T12:53:00.114Z,100157.03
2023-01-08T12:55:38.391Z,100160.75
2023-01-08T12:58:21.183Z,100153.56
2023-01-08T13:01:16.219Z,100154.22
2023-01-08T13:03:44.661Z,100147.16
2023-01-08T13:06:15.850Z,100155.47
2023-01-08T13:08:54.468Z,100153.72
2023-01-08T13:11:34.902Z,100157.84
2023-01-08T13:14:09.240Z,100154.94
2023-01-08T13:16:42.096Z,100149.25
2023-01-08T13:19:25.975Z,100159.47
2023-01-08T13:21:59.033Z,100145.69
2023-01-08T13:24:32.462Z,100146.53
2023-01-08T13:27:28.433Z,100148.81
2023-01-08T13:29:58.230Z,100139.66
2023-01-08T13:32:34.912Z,100147.88
2023-01-08T13:35:12.845Z,100138.38
2023-01-08T13:37:40.293Z,100139.47
2023-01-08T13:40:53.468Z,100134.34
2023-01-08T13:43:36.675Z,100135.63
2023-01-08T13:46:04.037Z,100140.41
2023-01-08T13:48:36.389Z,100133.66
2023-01-08T13:51:04.193Z,100137.09
2023-01-08T13:53:32.840Z,100134.84
2023-01-08T13:56:04.778Z,100137.69
2023-01-08T13:58:45.847Z,100136.63
2023-01-08T14:01:14.971Z,100135.00
2023-01-08T14:03:48.111Z,100131.28
2023-01-08T14:06:20.002Z,100136.41
2023-01-08T14:08:51.822Z,100134.16
2023-01-08T14:11:21.269Z,100126.59
2023-01-08T14:13:49.032Z,100123.13
2023-01-08T14:16:17.309Z,100122.34
2023-01-08T14:18:45.757Z,100119.66
2023-01-08T14:21:14.673Z,100122.56
2023-01-08T14:23:46.268Z,100117.53
2023-01-08T14:26:19.432Z,100119.78
2023-01-08T14:28:53.916Z,100127.47
2023-01-08T14:31:23.342Z,100122.56
2023-01-08T14:33:53.205Z,100119.22
2023-01-08T14:36:21.189Z,100118.84
2023-01-08T14:38:51.098Z,100112.97
2023-01-08T14:41:53.273Z,100119.81
2023-01-08T14:44:29.096Z,100104.47
2023-01-08T14:47:04.288Z,100106.81
2023-01-08T14:49:34.921Z,100104.03
2023-01-08T14:52:02.957Z,100105.63
2023-01-08T14:54:36.183Z,100098.50
2023-01-08T14:57:04.484Z,100108.69
2023-01-08T14:59:40.006Z,100102.97
2023-01-08T15:02:25.822Z,100103.09
2023-01-08T15:05:30.486Z,100094.25
2023-01-08T15:08:25.892Z,100093.38
2023-01-08T15:11:02.333Z,100091.25
2023-01-08T15:13:35.375Z,100089.28
2023-01-08T15:16:10.875Z,100095.19
2023-01-08T15:19:02.795Z,100095.06
2023-01-08T15:21:30.836Z,100091.88
2023-01-08T15:24:00.599Z,100101.47
2023-01-08T15:26:28.274Z,100091.41
2023-01-08T15:29:01.608Z,100098.41
2023-01-08T15:31:39.540Z,100103.13
2023-01-08T15:34:11.094Z,100104.31
2023-01-08T15:36:38.364Z,100109.94
2023-01-08T15:39:05.912Z,100105.25
2023-01-08T15:41:53.795Z,100107.34
2023-01-08T15:44:21.134Z,100103.84
2023-01-08T15:46:48.476Z,100103.94
2023-01-08T15:49:15.723Z,100109.47
2023-01-08T15:51:46.404Z,100106.13
2023-01-08T15:54:14.687Z,100104.44
2023-01-08T15:56:42.392Z,100100.78
2023-01-08T15:59:09.842Z,100107.75
2023-01-08T16:01:37.325Z,100099.91
2023-01-08T16:04:04.925Z,100111.00
2023-01-08T16:06:32.306Z,100110.88
2023-01-08T16:09:00.866Z,100103.47
2023-01-08T16:11:28.275Z,100094.84
2023-01-08T16:13:55.585Z,100096.50
2023-01-08T16:16:23.006Z,100099.72
2023-01-08T16:18:50.532Z,100093.13
2023-01-08T16:21:17.959Z,100093.97
2023-01-08T16:23:45.171Z,100094.03
2023-01-08T16:26:15.085Z,100088.56
2023-01-08T16:28:42.372Z,100085.06
2023-01-08T16:31:10.451Z,100093.78
2023-01-08T16:33:37.995Z,100093.59
2023-01-08T16:36:07.134Z,100087.75
2023-01-08T16:38:36.281Z,100078.97
2023-01-08T16:41:04.824Z,100092.03
2023-01-08T16:43:40.481Z,100090.97
2023-01-08T16:46:16.433Z,100090.38
2023-01-08T16:48:44.661Z,100089.59
2023-01-08T16:51:12.772Z,100093.22
2023-01-08T16:53:40.089Z,100085.31
2023-01-08T16:56:08.078Z,100088.78
2023-01-08T16:58:37.071Z,100090.69
2023-01-08T17:01:10.007Z,100087.38
2023-01-08T17:03:38.084Z,100093.84
2023-01-08T17:06:07.483Z,100096.88
2023-01-08T17:08:40.038Z,100097.13
2023-01-08T17:11:10.017Z,100094.88
2023-01-08T17:13:37.499Z,100097.56
2023-01-08T17:16:06.083Z,100088.25
2023-01-08T17:18:34.025Z,100091.13
2023-01-08T17:21:01.400Z,100101.69
2023-01-08T17:23:29.372Z,100100.63
2023-01-08T17:25:59.514Z,100095.31
2023-01-08T17:28:28.692Z,100093.22
2023-01-08T17:31:17.605Z,100102.22
2023-01-08T17:33:49.815Z,100093.53
2023-01-08T17:36:27.353Z,100104.59
2023-01-08T17:38:54.725Z,100099.34
2023-01-08T17:41:41.655Z,100100.94
2023-01-08T17:44:11.953Z,100104.34
2023-01-08T17:46:45.223Z,100096.03
2023-01-08T17:49:14.654Z,100089.16
2023-01-08T17:51:42.358Z,100089.44
2023-01-08T17:54:10.985Z,100097.28
2023-01-08T17:56:38.614Z,100096.25
2023-01-08T17:59:06.027Z,100093.72
2023-01-08T18:01:35.051Z,100095.22
2023-01-08T18:04:03.102Z,100085.59
2023-01-08T18:06:30.453Z,100082.66
2023-01-08T18:08:57.737Z,100081.72
2023-01-08T18:11:25.614Z,100077.69
2023-01-08T18:13:57.236Z,100082.44
2023-01-08T18:16:24.947Z,100085.00
2023-01-08T18:18:52.844Z,100081.06
2023-01-08T18:21:20.036Z,100087.34
2023-01-08T18:23:47.761Z,100086.63
2023-01-08T18:26:17.964Z,100084.59
2023-01-08T18:28:45.279Z,100083.44
2023-01-08T18:31:13.661Z,100083.78
2023-01-08T18:33:41.242Z,100082.25
2023-01-08T18:36:11.653Z,100085.16
2023-01-08T18:38:41.504Z,100084.69
2023-01-08T18:41:10.168Z,100085.56
2023-01-08T18:43:38.039Z,100086.75
2023-01-08T18:46:07.939Z,100090.91
2023-01-08T18:48:35.619Z,100086.66
2023-01-08T18:51:05.710Z,100087.78
2023-01-08T18:53:34.011Z,100084.81
2023-01-08T18:56:01.582Z,100088.59
2023-01-08T18:58:29.541Z,100085.91
2023-01-08T19:01:03.940Z,100085.81
2023-01-08T19:03:31.455Z,100090.91
2023-01-08T19:05:58.798Z,100081.44
2023-01-08T19:08:26.180Z,100077.06
2023-01-08T19:10:53.472Z,100082.00
2023-01-08T19:13:20.978Z,100088.78
2023-01-08T19:15:48.244Z,100075.94
2023-01-08T19:18:15.506Z,100089.94
2023-01-08T19:20:46.634Z,100082.13
2023-01-08T19:23:14.955Z,100090.34
2023-01-08T19:25:42.845Z,100087.63
2023-01-08T19:28:10.558Z,100087.44
2023-01-08T19:30:37.908Z,100082.22
2023-01-08T19:33:05.171Z,100086.81
2023-01-08T19:35:32.614Z,100086.34
2023-01-08T19:37:59.936Z,100097.09
2023-01-08T19:40:27.246Z,100103.47
2023-01-08T19:43:13.039Z,100087.78
2023-01-08T19:45:40.376Z,100087.09
2023-01-08T19:48:07.696Z,100096.03
2023-01-08T19:50:38.760Z,100090.63
2023-01-08T19:53:06.332Z,100091.59
2023-01-08T19:55:35.465Z,100089.88
2023-01-08T19:58:03.501Z,100091.00
2023-01-08T20:00:37.240Z,100090.72
2023-01-08T20:03:05.657Z,100083.75
2023-01-08T20:05:32.991Z,100095.69
2023-01-08T20:08:00.277Z,100090.56
2023-01-08T20:10:27.760Z,100090.22
2023-01-08T20:12:55.008Z,100087.16
2023-01-08T20:15:22.446Z,100084.06
2023-01-08T20:17:49.707Z,100085.63
2023-01-08T20:20:16.974Z,100073.50
2023-01-08T20:22:44.349Z,100083.41
2023-01-08T20:25:11.674Z,100081.63
2023-01-08T20:27:39.122Z,100084.13
2023-01-08T20:30:08.589Z,100082.13
2023-01-08T20:32:36.398Z,100079.47
2023-01-08T20:35:04.908Z,100082.31
2023-01-08T20:37:33.525Z,100079.03
2023-01-08T20:40:00.780Z,100075.97
2023-01-08T20:42:34.081Z,100073.97
2023-01-08T20:45:02.134Z,100069.31
2023-01-08T20:47:29.411Z,100068.41
2023-01-08T20:49:56.665Z,100062.16
2023-01-08T20:52:23.980Z,100062.72
2023-01-08T20:54:53.059Z,100051.78
2023-01-08T20:57:20.347Z,100048.34
2023-01-08T20:59:47.731Z,100050.25
2023-01-08T21:02:15.102Z,100048.97
2023-01-08T21:04:43.820Z,100044.53
2023-01-08T21:07:11.055Z,100042.75
2023-01-08T21:09:40.272Z,100054.19
2023-01-08T21:12:08.142Z,100043.22
2023-01-08T21:14:35.464Z,100041.91
2023-01-08T21:17:02.706Z,100044.69
2023-01-08T21:19:30.033Z,100046.78
2023-01-08T21:21:57.316Z,100040.94
2023-01-08T21:24:24.669Z,100046.06
2023-01-08T21:26:51.855Z,100044.00
2023-01-08T21:29:20.964Z,100030.47
2023-01-08T21:31:48.733Z,100035.00
2023-01-08T21:34:16.029Z,100035.38
2023-01-08T21:36:43.377Z,100029.41
2023-01-08T21:39:11.036Z,100029.84
2023-01-08T21:41:56.869Z,100023.81
2023-01-08T21:44:44.273Z,100024.44
2023-01-08T21:47:16.517Z,100014.78
2023-01-08T21:49:45.047Z,100005.28
2023-01-08T21:52:30.962Z,99998.13
2023-01-08T21:54:58.421Z,99999.69
2023-01-08T21:57:28.009Z,100004.47
2023-01-08T21:59:55.836Z,99990.25
2023-01-08T22:02:24.405Z,99997.44
2023-01-08T22:04:54.842Z,99994.03
2023-01-08T22:07:22.659Z,99994.31
2023-01-08T22:09:49.918Z,99986.34
2023-01-08T22:12:17.215Z,99987.31
2023-01-08T22:14:44.587Z,99993.75
2023-01-08T22:17:12.033Z,99997.25
2023-01-08T22:19:39.727Z,99995.69
2023-01-08T22:22:10.299Z,99986.53
2023-01-08T22:24:39.643Z,99984.41
2023-01-08T22:27:08.216Z,99986.88
2023-01-08T22:29:36.680Z,99977.91
2023-01-08T22:32:04.788Z,99966.56
2023-01-08T22:34:33.573Z,99970.47
2023-01-08T22:37:01.496Z,99962.56
2023-01-08T22:39:28.863Z,99969.53
2023-01-08T22:41:56.556Z,99969.53
2023-01-08T22:44:23.874Z,99970.31
2023-01-08T22:46:51.132Z,99964.91
2023-01-08T22:49:18.429Z,99958.53
2023-01-08T22:51:45.786Z,99966.03
2023-01-08T22:54:14.327Z,99952.63
2023-01-08T22:56:41.648Z,99952.53
2023-01-08T22:59:09.027Z,99943.56
2023-01-08T23:01:36.431Z,99941.63
2023-01-08T23:04:04.278Z,99933.88
2023-01-08T23:06:32.656Z,99932.66
2023-01-08T23:09:00.365Z,99916.09
2023-01-08T23:11:27.934Z,99915.22
2023-01-08T23:13:55.783Z,99917.84
2023-01-08T23:16:25.322Z,99908.28
2023-01-08T23:18:54.556Z,99907.38
2023-01-08T23:21:23.743Z,99909.56
2023-01-08T23:23:51.526Z,99900.00
2023-01-08T23:26:22.366Z,99896.59
2023-01-08T23:28:50.924Z,99893.13
2023-01-08T23:31:22.341Z,99894.03
2023-01-08T23:33:50.042Z,99892.22
2023-01-08T23:36:21.327Z,99885.25
2023-01-08T23:38:51.513Z,99879.41
2023-01-08T23:41:20.422Z,99883.16
2023-01-08T23:43:49.302Z,99874.38
2023-01-08T23:46:17.580Z,99881.59
2023-01-08T23:48:45.636Z,99871.31
2023-01-08T23:51:12.964Z,99857.69
2023-01-08T23:53:40.227Z,99855.09
2023-01-08T23:56:07.764Z,99854.66
2023-01-08T23:58:35.936Z,99852.09
